Startpagina
METAR-TAF:

METAR-TAF

Vliegvelden :

Oezjhorod, Oekraïne

breedte: 48-38-05N, lengte: 022-15-53E, hoogte: 117 m

Actueel weer

Dit bericht is 35 minuten geleden gemaakt, om 14:00 UTC
Weinig wind
Temperatuur 9°C
Vochtigheid 87%
Druk 994 hPa
Zicht 10 km of meer
Geheel bewolkt op 1400 ft

METAR: UKLU 261400Z 00000MPS 9999 OVC014 09/07 Q0994 R10/290160 NOSIG

Tijdstip: 16:35 (14:35 UTC)

Verwachting

Dit bericht is 3 uur en het 31 minuten geleden gemaakt, om 11:04 UTC
Verwachting geldig van 26 om 12 UTC tot 26 om 21 UTC
Wind 6 kt uit het zuidoosten
Zicht: 3000 m
Geheel bewolkt op 2000 ft
lichte regen
Tijdelijke
van 26 om 12 UTC tot 26 om 18 UTC
Wind 10 kt uit het noordwesten met uitschieters tot 19 kt
Zicht: 1200 m
Verspreide wolken op 500 ft
Gebroken wolken op 1500 ft, Cumulonimbus.
regenbuien, nevel

TAF: UKLU 261104Z 2612/2621 14003MPS 3000 -RA OVC020 TEMPO 2612/2618 32005G10MPS 1200 SHRA BR SCT005 BKN015CB

Waarnemingen en weersverwachtingen van meer dan 4000 vliegvelden (METAR en TAF).

De beschikbare stations zijn de gele en rode punten op de kaart.

Ga met uw muis naar het station om de naam te zien.

Klik dan om waarnemingen en weersverwachtingen te zien.

kaart wijzigen: klik op de groene knoppen met een zwart kruis om in te zoomen, op de groene knop met een streepje om uit te zoomen of op de groene pijlen voor aangrenzende kaarten.


METAR-TAF: